Time;durP1;ratioP1;P1;durP2;ratioP2;P2;SDS_P1;SDS_P2;PMS_P1;PMS_P2;Temp;Humidity;BMP_temperature;BMP_pressure;BME280_temperature;BME280_humidity;BME280_pressure;Samples;Min_cycle;Max_cycle;Signal;HPM_P1;HPM_P2
2022/06/01 00:01:03;;;;;;;8.00;5.70;;;11.80;96.40;;;;;;5095680;28;20444;-80
2022/06/01 00:03:33;;;;;;;8.50;5.83;;;11.90;96.40;;;;;;5095285;28;20551;-80
2022/06/01 00:06:02;;;;;;;6.90;5.60;;;11.90;96.50;;;;;;5096666;28;20520;-80
2022/06/01 00:08:30;;;;;;;7.17;5.97;;;11.90;96.50;;;;;;5096534;28;20460;-80
2022/06/01 00:11:00;;;;;;;6.10;5.47;;;11.90;96.60;;;;;;5096778;28;20428;-80
2022/06/01 00:13:28;;;;;;;7.60;6.20;;;11.80;96.50;;;;;;5095022;28;21048;-80
2022/06/01 00:15:56;;;;;;;6.60;5.77;;;11.80;96.50;;;;;;5096511;28;20435;-80
2022/06/01 00:18:25;;;;;;;7.30;6.13;;;11.80;96.50;;;;;;5096609;28;20436;-79
2022/06/01 00:20:55;;;;;;;7.00;6.20;;;11.80;96.60;;;;;;5095565;28;20480;-79
2022/06/01 00:23:23;;;;;;;7.27;6.57;;;11.80;96.70;;;;;;5095085;28;20472;-79
2022/06/01 00:25:51;;;;;;;6.60;5.90;;;11.80;96.70;;;;;;5094858;28;20447;-80
2022/06/01 00:28:21;;;;;;;8.10;6.03;;;11.80;96.70;;;;;;5094549;28;20505;-79
2022/06/01 00:30:49;;;;;;;7.00;5.57;;;11.70;96.70;;;;;;5095044;28;20453;-79
2022/06/01 00:33:17;;;;;;;6.53;5.77;;;11.70;96.80;;;;;;5094545;28;20513;-80
2022/06/01 00:35:46;;;;;;;8.83;6.10;;;11.70;96.80;;;;;;5094479;28;20806;-79
2022/06/01 00:38:16;;;;;;;8.73;6.37;;;11.70;96.90;;;;;;5094441;28;20459;-79
2022/06/01 00:40:45;;;;;;;7.93;6.83;;;11.70;97.20;;;;;;5094323;28;20464;-79
2022/06/01 00:43:24;;;;;;;8.47;7.57;;;11.70;97.00;;;;;;5094230;28;20482;-79
2022/06/01 00:45:53;;;;;;;9.33;7.67;;;11.70;97.40;;;;;;5094527;28;20444;-80
2022/06/01 00:48:27;;;;;;;8.63;7.73;;;11.70;97.20;;;;;;5094379;28;20440;-79
2022/06/01 00:50:56;;;;;;;7.90;6.90;;;11.70;97.30;;;;;;5095910;28;20842;-79
2022/06/01 00:53:28;;;;;;;8.43;7.43;;;11.70;97.40;;;;;;5094011;28;20502;-79
2022/06/01 00:55:59;;;;;;;7.57;6.63;;;11.70;97.50;;;;;;5094403;28;20531;-80
2022/06/01 00:58:33;;;;;;;7.57;6.77;;;11.70;97.60;;;;;;5094582;28;20514;-79
2022/06/01 01:01:01;;;;;;;7.67;6.87;;;11.80;97.70;;;;;;5095834;28;20416;-80
2022/06/01 01:03:40;;;;;;;10.10;7.47;;;11.80;97.70;;;;;;5093731;28;21015;-80
2022/06/01 01:06:13;;;;;;;8.60;7.80;;;11.80;97.70;;;;;;5096756;28;20428;-80
2022/06/01 01:08:43;;;;;;;8.70;6.83;;;11.80;97.80;;;;;;5095964;28;20412;-80
2022/06/01 01:11:13;;;;;;;9.83;7.20;;;11.80;97.90;;;;;;5095299;28;20480;-80
2022/06/01 01:13:46;;;;;;;8.23;7.30;;;11.80;98.00;;;;;;5093975;28;20472;-79
2022/06/01 01:16:15;;;;;;;8.50;7.57;;;11.80;98.10;;;;;;5093582;28;20444;-80
2022/06/01 01:18:46;;;;;;;7.83;7.03;;;11.80;98.10;;;;;;5093709;28;20451;-80
2022/06/01 01:21:24;;;;;;;9.13;7.77;;;11.80;98.20;;;;;;5093857;28;20485;-79
2022/06/01 01:23:59;;;;;;;8.77;7.97;;;11.80;98.30;;;;;;5094164;28;20522;-79
2022/06/01 01:26:29;;;;;;;9.37;7.90;;;11.90;98.70;;;;;;5095610;28;20507;-80
2022/06/01 01:28:58;;;;;;;8.33;7.53;;;11.80;98.40;;;;;;5094274;28;20977;-79
2022/06/01 01:31:27;;;;;;;8.80;8.00;;;11.80;98.50;;;;;;5093757;28;20456;-79
2022/06/01 01:33:56;;;;;;;9.10;7.97;;;11.80;98.60;;;;;;5094089;28;20471;-80
2022/06/01 01:36:29;;;;;;;9.17;8.27;;;11.90;98.70;;;;;;5094591;28;20818;-79
2022/06/01 01:39:03;;;;;;;8.80;7.90;;;11.80;98.80;;;;;;5093897;28;20479;-79
2022/06/01 01:41:36;;;;;;;8.53;7.73;;;11.90;98.90;;;;;;5093586;28;20512;-79
2022/06/01 01:44:12;;;;;;;9.43;8.43;;;11.90;98.90;;;;;;5095356;28;20495;-80
2022/06/01 01:46:40;;;;;;;8.27;7.47;;;11.90;99.00;;;;;;5096849;28;20440;-80
2022/06/01 01:49:09;;;;;;;9.43;8.10;;;11.90;99.10;;;;;;5097742;28;20853;-80
2022/06/01 01:51:37;;;;;;;9.77;8.87;;;11.90;99.10;;;;;;5097789;28;20454;-79
2022/06/01 01:54:15;;;;;;;9.53;8.53;;;11.90;99.20;;;;;;5097735;28;20467;-79
2022/06/01 01:57:10;;;;;;;10.73;8.50;;;11.90;99.30;;;;;;5099229;28;20449;-79
2022/06/01 01:59:50;;;;;;;10.80;9.70;;;11.90;99.40;;;;;;5097732;28;20980;-79
2022/06/01 02:02:25;;;;;;;10.73;9.73;;;11.90;99.40;;;;;;5098803;28;20420;-80
2022/06/01 02:07:55;;;;;;;10.43;9.43;;;11.90;99.60;;;;;;5097300;28;20809;-81
2022/06/01 02:13:10;;;;;;;9.00;8.10;;;11.90;99.70;;;;;;5098043;28;20468;-81
2022/06/01 02:15:43;;;;;;;9.70;8.80;;;11.90;99.70;;;;;;5097713;28;20456;-81
2022/06/01 02:18:16;;;;;;;9.80;8.73;;;11.90;99.80;;;;;;5097426;28;20440;-81
2022/06/01 02:20:50;;;;;;;9.97;8.97;;;11.90;99.80;;;;;;5099625;28;20416;-80
2022/06/01 02:23:19;;;;;;;10.53;9.43;;;11.90;99.90;;;;;;5097674;28;20996;-79
2022/06/01 02:25:50;;;;;;;10.73;9.17;;;11.90;99.90;;;;;;5097550;28;20527;-82
2022/06/01 02:28:20;;;;;;;9.60;8.60;;;11.90;99.90;;;;;;5097400;28;20447;-82
2022/06/01 02:30:49;;;;;;;10.60;9.10;;;11.90;99.90;;;;;;5098271;28;20479;-80
2022/06/01 02:33:25;;;;;;;10.43;9.43;;;11.90;99.90;;;;;;5097193;28;20521;-82
2022/06/01 02:35:55;;;;;;;11.30;10.20;;;11.90;99.90;;;;;;5097612;28;20440;-82
2022/06/01 02:38:26;;;;;;;10.60;9.60;;;11.90;99.90;;;;;;5099801;28;20417;-82
2022/06/01 02:40:54;;;;;;;11.00;10.00;;;11.80;99.90;;;;;;5097581;28;20472;-81
2022/06/01 02:43:26;;;;;;;11.93;10.80;;;11.90;99.90;;;;;;5097914;28;20478;-81
2022/06/01 02:45:56;;;;;;;11.73;10.60;;;11.80;99.90;;;;;;5098674;28;20444;-82
2022/06/01 02:48:24;;;;;;;14.07;12.47;;;11.70;99.90;;;;;;5099306;28;20432;-83
2022/06/01 02:50:52;;;;;;;11.80;10.60;;;11.70;99.90;;;;;;5099702;28;20554;-82
2022/06/01 02:53:20;;;;;;;12.50;11.30;;;11.70;99.90;;;;;;5098155;28;20502;-83
2022/06/01 02:55:49;;;;;;;12.00;10.90;;;11.70;99.90;;;;;;5097982;28;20964;-84
2022/06/01 02:58:17;;;;;;;12.53;11.40;;;11.70;99.90;;;;;;5096728;28;20440;-81
2022/06/01 03:00:46;;;;;;;13.40;12.10;;;11.70;99.90;;;;;;5103164;28;20491;-81
2022/06/01 03:03:15;;;;;;;14.90;13.50;;;11.70;99.90;;;;;;5107878;28;20491;-81
2022/06/01 03:05:43;;;;;;;14.20;12.90;;;11.70;99.90;;;;;;5112119;28;20499;-80
2022/06/01 03:08:11;;;;;;;16.03;14.40;;;11.70;99.90;;;;;;5114281;28;20444;-81
2022/06/01 03:10:39;;;;;;;15.87;14.30;;;11.70;99.90;;;;;;5116447;28;20476;-79
2022/06/01 03:13:20;;;;;;;16.37;14.77;;;11.60;99.90;;;;;;5114930;28;20478;-80
2022/06/01 03:15:50;;;;;;;15.73;14.40;;;11.60;99.90;;;;;;5115164;28;20511;-80
2022/06/01 03:18:18;;;;;;;15.20;13.80;;;11.60;99.90;;;;;;5116382;28;20440;-80
2022/06/01 03:20:47;;;;;;;15.23;13.73;;;11.50;99.90;;;;;;5115514;28;20495;-80
2022/06/01 03:23:15;;;;;;;15.73;14.33;;;11.50;99.90;;;;;;5115107;28;20471;-80
2022/06/01 03:25:43;;;;;;;15.93;14.37;;;11.40;99.90;;;;;;5115624;28;20455;-80
2022/06/01 03:28:11;;;;;;;15.20;13.80;;;11.50;99.90;;;;;;5115392;28;20471;-80
2022/06/01 03:30:40;;;;;;;14.47;13.17;;;11.40;99.90;;;;;;5116063;28;20498;-82
2022/06/01 03:33:10;;;;;;;14.03;12.70;;;11.40;99.90;;;;;;5115084;28;20482;-82
2022/06/01 03:35:39;;;;;;;16.70;15.20;;;11.40;99.90;;;;;;5117712;28;20451;-82
2022/06/01 03:38:08;;;;;;;14.10;12.80;;;11.50;99.90;;;;;;5114924;28;20449;-82
2022/06/01 03:40:38;;;;;;;13.00;11.73;;;11.50;99.90;;;;;;5115905;28;20454;-81
2022/06/01 03:43:07;;;;;;;13.40;12.10;;;11.50;99.90;;;;;;5116592;28;20442;-80
2022/06/01 03:48:23;;;;;;;14.43;13.13;;;11.50;99.90;;;;;;5101280;28;20444;-81
2022/06/01 03:50:51;;;;;;;14.17;12.87;;;11.50;99.90;;;;;;5103088;28;20821;-81
2022/06/01 03:53:20;;;;;;;15.13;13.63;;;11.50;99.90;;;;;;5104878;28;20472;-81
2022/06/01 03:55:48;;;;;;;13.97;12.67;;;11.50;99.90;;;;;;5104934;28;20440;-81
2022/06/01 03:58:18;;;;;;;25.20;21.57;;;11.50;99.90;;;;;;5104015;28;20472;-81
2022/06/01 04:00:46;;;;;;;15.47;14.03;;;11.50;99.90;;;;;;5103118;28;20448;-81
2022/06/01 04:03:15;;;;;;;14.60;13.20;;;11.50;99.90;;;;;;5102478;28;20459;-81
2022/06/01 04:05:45;;;;;;;14.63;13.33;;;11.40;99.90;;;;;;5101696;28;20444;-80
2022/06/01 04:08:13;;;;;;;15.07;13.77;;;11.50;99.90;;;;;;5099760;28;21016;-81
2022/06/01 04:10:44;;;;;;;14.90;13.60;;;11.50;99.90;;;;;;5099727;28;20551;-81
2022/06/01 04:13:12;;;;;;;14.97;13.57;;;11.50;99.90;;;;;;5098680;28;20460;-81
2022/06/01 04:15:41;;;;;;;14.37;13.07;;;11.50;99.90;;;;;;5098376;28;20452;-81
2022/06/01 04:18:10;;;;;;;15.03;13.63;;;11.50;99.90;;;;;;5099023;28;20449;-82
2022/06/01 04:20:38;;;;;;;14.57;13.23;;;11.50;99.90;;;;;;5097875;28;20448;-79
2022/06/01 04:23:07;;;;;;;17.20;15.50;;;11.50;99.90;;;;;;5098258;28;20464;-80
2022/06/01 04:25:35;;;;;;;16.03;14.53;;;11.50;99.90;;;;;;5098887;28;20879;-80
2022/06/01 04:28:04;;;;;;;19.20;17.30;;;11.50;99.90;;;;;;5098999;28;20799;-80
2022/06/01 04:30:33;;;;;;;17.00;15.30;;;11.60;99.90;;;;;;5097680;28;20483;-79
2022/06/01 04:33:03;;;;;;;17.20;15.60;;;11.50;99.90;;;;;;5098368;28;20448;-81
2022/06/01 04:35:31;;;;;;;19.07;16.70;;;11.60;99.90;;;;;;5097018;28;20461;-80
2022/06/01 04:38:13;;;;;;;16.83;15.23;;;11.60;99.90;;;;;;5097283;28;20452;-82
2022/06/01 04:40:45;;;;;;;15.80;14.30;;;11.60;99.90;;;;;;5096644;28;20436;-80
2022/06/01 04:43:14;;;;;;;15.67;14.27;;;11.60;99.90;;;;;;5097405;28;21083;-81
2022/06/01 04:45:43;;;;;;;15.90;14.50;;;11.60;99.90;;;;;;5098268;28;20922;-81
2022/06/01 04:48:12;;;;;;;17.23;15.60;;;11.60;99.90;;;;;;5097899;28;20444;-80
2022/06/01 04:50:43;;;;;;;16.50;15.00;;;11.60;99.90;;;;;;5097232;28;20583;-81
2022/06/01 04:53:12;;;;;;;18.53;16.70;;;11.60;99.90;;;;;;5098593;28;20479;-81
2022/06/01 04:55:43;;;;;;;16.47;14.90;;;11.60;99.90;;;;;;5109842;28;20444;-81
2022/06/01 04:58:12;;;;;;;16.17;14.67;;;11.60;99.90;;;;;;5109350;28;20471;-81
2022/06/01 05:00:42;;;;;;;17.23;15.53;;;11.60;99.90;;;;;;5106748;28;20468;-81
2022/06/01 05:03:11;;;;;;;16.77;15.30;;;11.70;99.90;;;;;;5106687;28;20524;-82
2022/06/01 05:05:40;;;;;;;18.97;17.27;;;11.60;99.90;;;;;;5099605;28;20991;-81
2022/06/01 05:08:11;;;;;;;17.93;16.33;;;11.70;99.90;;;;;;5096407;28;20432;-81
2022/06/01 05:10:42;;;;;;;17.90;16.30;;;11.70;99.90;;;;;;5096711;28;20547;-81
2022/06/01 05:13:12;;;;;;;17.30;15.70;;;11.70;99.90;;;;;;5098035;28;20458;-81
2022/06/01 05:15:47;;;;;;;17.23;15.63;;;11.70;99.90;;;;;;5096531;28;20456;-81
2022/06/01 05:18:16;;;;;;;18.00;16.20;;;11.70;99.90;;;;;;5096372;28;20465;-81
2022/06/01 05:20:44;;;;;;;17.67;16.03;;;11.70;99.90;;;;;;5097110;28;20458;-81
2022/06/01 05:23:13;;;;;;;17.70;16.13;;;11.70;99.90;;;;;;5097776;28;20546;-81
2022/06/01 05:25:44;;;;;;;17.93;16.43;;;11.80;99.90;;;;;;5097789;28;20812;-81
2022/06/01 05:28:13;;;;;;;17.40;15.83;;;11.80;99.90;;;;;;5096816;28;20436;-81
2022/06/01 05:30:41;;;;;;;18.80;17.20;;;11.80;99.90;;;;;;5095740;28;20448;-81
2022/06/01 05:33:10;;;;;;;17.47;15.70;;;11.80;99.90;;;;;;5095912;28;20478;-80
2022/06/01 05:35:38;;;;;;;18.50;16.80;;;11.80;99.90;;;;;;5096215;28;20448;-80
2022/06/01 05:38:06;;;;;;;18.63;16.97;;;11.80;99.90;;;;;;5098412;28;20471;-81
2022/06/01 05:40:35;;;;;;;24.10;22.00;;;11.80;99.90;;;;;;5098393;28;20444;-81
2022/06/01 05:43:09;;;;;;;20.33;18.43;;;11.90;99.90;;;;;;5096996;28;20547;-82
2022/06/01 05:45:37;;;;;;;18.73;17.03;;;11.80;99.90;;;;;;5096632;28;20436;-81
2022/06/01 05:48:08;;;;;;;18.87;17.27;;;11.80;99.90;;;;;;5096495;28;20452;-81
2022/06/01 05:50:36;;;;;;;18.70;17.00;;;11.90;99.90;;;;;;5096926;28;20527;-82
2022/06/01 05:53:04;;;;;;;17.63;15.90;;;11.90;99.90;;;;;;5096041;28;20468;-81
2022/06/01 05:55:35;;;;;;;20.00;18.20;;;11.90;99.90;;;;;;5096227;28;21006;-82
2022/06/01 05:58:12;;;;;;;20.67;18.73;;;11.90;99.90;;;;;;5095812;28;20791;-81
2022/06/01 06:00:43;;;;;;;22.27;20.37;;;12.00;99.90;;;;;;5096151;28;20432;-82
2022/06/01 06:03:12;;;;;;;23.30;21.30;;;12.00;99.90;;;;;;5095579;28;20474;-82
2022/06/01 06:08:34;;;;;;;25.03;23.03;;;12.00;99.90;;;;;;5096671;28;20441;-83
2022/06/01 06:11:02;;;;;;;25.80;23.60;;;12.10;99.90;;;;;;5097660;28;20440;-81
2022/06/01 06:13:32;;;;;;;25.10;23.03;;;12.10;99.90;;;;;;5096729;28;20567;-80
2022/06/01 06:16:00;;;;;;;23.90;21.80;;;12.10;99.90;;;;;;5096558;28;20449;-82
2022/06/01 06:18:28;;;;;;;25.47;23.17;;;12.20;99.90;;;;;;5096271;28;20458;-83
2022/06/01 06:20:56;;;;;;;27.90;25.33;;;12.20;99.90;;;;;;5097030;28;20527;-82
2022/06/01 06:23:24;;;;;;;30.67;27.90;;;12.20;99.90;;;;;;5096083;28;20555;-83
2022/06/01 06:25:53;;;;;;;30.63;28.17;;;12.20;99.90;;;;;;5095751;28;20469;-82
2022/06/01 06:28:21;;;;;;;29.73;27.10;;;12.30;99.90;;;;;;5095942;28;20452;-82
2022/06/01 06:30:51;;;;;;;30.90;28.23;;;12.30;99.90;;;;;;5097081;28;20441;-81
2022/06/01 06:33:19;;;;;;;31.00;28.40;;;12.30;99.90;;;;;;5099958;28;20506;-83
2022/06/01 06:35:56;;;;;;;34.33;31.40;;;12.30;99.90;;;;;;5099315;28;20437;-80
2022/06/01 06:38:27;;;;;;;33.30;30.53;;;12.30;99.90;;;;;;5099672;28;20450;-83
2022/06/01 06:40:59;;;;;;;32.07;29.27;;;12.30;99.90;;;;;;5099274;28;20991;-83
2022/06/01 06:43:29;;;;;;;30.97;28.33;;;12.30;99.90;;;;;;5099236;28;21019;-82
2022/06/01 06:46:01;;;;;;;32.60;29.67;;;12.30;99.90;;;;;;5100583;28;20454;-80
2022/06/01 06:48:29;;;;;;;32.77;29.57;;;12.30;99.90;;;;;;5101158;28;20446;-80
2022/06/01 06:50:58;;;;;;;31.53;28.87;;;12.30;99.90;;;;;;5098938;28;20882;-82
2022/06/01 06:53:27;;;;;;;35.03;32.13;;;12.30;99.90;;;;;;5098865;28;20483;-83
2022/06/01 06:55:56;;;;;;;32.27;29.60;;;12.30;99.90;;;;;;5098800;28;21051;-80
2022/06/01 06:58:25;;;;;;;32.83;30.17;;;12.30;99.90;;;;;;5098974;28;20859;-83
2022/06/01 07:00:53;;;;;;;31.97;29.17;;;12.40;99.90;;;;;;5099770;28;20955;-82
2022/06/01 07:03:23;;;;;;;33.20;30.30;;;12.40;99.90;;;;;;5098094;28;20555;-83
2022/06/01 07:06:11;;;;;;;34.67;31.77;;;12.40;99.90;;;;;;5099830;28;20455;-84
2022/06/01 07:08:42;;;;;;;34.90;31.80;;;12.40;99.90;;;;;;5099923;28;20793;-82
2022/06/01 07:11:12;;;;;;;36.00;32.67;;;12.50;99.90;;;;;;5098541;28;20451;-81
2022/06/01 07:13:40;;;;;;;33.97;31.07;;;12.50;99.90;;;;;;5098142;28;20579;-82
2022/06/01 07:16:12;;;;;;;35.70;32.70;;;12.60;99.90;;;;;;5098367;28;20466;-82
2022/06/01 07:18:44;;;;;;;36.37;33.17;;;12.60;99.90;;;;;;5098860;28;20443;-81
2022/06/01 07:21:14;;;;;;;34.30;31.17;;;12.60;99.90;;;;;;5098303;28;20472;-84
2022/06/01 07:23:43;;;;;;;35.23;32.13;;;12.70;99.90;;;;;;5098420;28;20851;-82
2022/06/01 07:26:14;;;;;;;35.57;32.47;;;12.70;99.90;;;;;;5098260;28;20450;-82
2022/06/01 07:28:43;;;;;;;34.63;31.63;;;12.80;99.90;;;;;;5100130;28;20432;-81
2022/06/01 07:31:12;;;;;;;35.10;32.00;;;12.80;99.90;;;;;;5099302;28;20509;-84
2022/06/01 07:33:41;;;;;;;35.23;32.13;;;12.90;99.90;;;;;;5098030;28;20547;-82
2022/06/01 07:36:12;;;;;;;35.00;32.00;;;13.00;99.90;;;;;;5098627;28;20448;-83
2022/06/01 07:44:19;;;;;;;39.93;36.30;;;13.30;99.90;;;;;;5097518;28;20472;-84
2022/06/01 07:46:48;;;;;;;36.10;32.73;;;13.50;99.90;;;;;;5099965;28;20564;-83
2022/06/01 07:49:19;;;;;;;35.73;32.57;;;13.70;99.90;;;;;;5097571;28;20486;-81
2022/06/01 07:52:10;;;;;;;34.17;31.10;;;13.90;99.90;;;;;;5097145;28;20440;-83
2022/06/01 07:54:39;;;;;;;35.67;32.50;;;14.00;99.90;;;;;;5097100;28;20567;-83
2022/06/01 07:57:08;;;;;;;37.43;34.13;;;14.10;99.90;;;;;;5097799;28;20476;-82
2022/06/01 07:59:37;;;;;;;36.33;33.03;;;14.30;99.90;;;;;;5111956;28;20447;-84
2022/06/01 08:02:09;;;;;;;33.27;30.37;;;14.40;99.90;;;;;;5110261;28;20464;-83
2022/06/01 08:04:40;;;;;;;35.60;32.43;;;14.50;99.90;;;;;;5108768;28;20460;-82
2022/06/01 08:07:10;;;;;;;33.73;30.60;;;14.50;99.90;;;;;;5106012;28;20484;-84
2022/06/01 08:09:38;;;;;;;34.20;31.27;;;14.60;99.90;;;;;;5100604;28;20440;-83
2022/06/01 08:14:53;;;;;;;34.60;31.63;;;14.60;99.90;;;;;;5098536;28;20438;-84
2022/06/01 08:17:21;;;;;;;33.53;30.70;;;14.70;99.90;;;;;;5098548;28;20860;-84
2022/06/01 08:19:51;;;;;;;36.03;32.80;;;14.70;99.90;;;;;;5099372;28;20474;-83
2022/06/01 08:22:19;;;;;;;34.33;31.47;;;14.70;99.90;;;;;;5099398;28;20884;-84
2022/06/01 08:24:47;;;;;;;37.10;33.70;;;14.70;99.90;;;;;;5099069;28;20491;-83
2022/06/01 08:27:15;;;;;;;33.20;30.40;;;14.70;99.90;;;;;;5099804;28;20515;-83
2022/06/01 08:29:44;;;;;;;35.10;32.00;;;14.70;99.90;;;;;;5099834;28;21025;-83
2022/06/01 08:32:12;;;;;;;34.10;31.20;;;14.80;99.90;;;;;;5100790;28;20441;-83
2022/06/01 08:34:40;;;;;;;35.93;33.03;;;14.80;99.90;;;;;;5100414;28;20835;-84
2022/06/01 08:37:11;;;;;;;34.00;31.00;;;14.80;99.90;;;;;;5100859;28;20473;-86
2022/06/01 08:39:39;;;;;;;32.23;29.43;;;14.90;99.90;;;;;;5101669;28;20436;-82
2022/06/01 08:42:12;;;;;;;33.10;30.27;;;14.90;99.90;;;;;;5102266;28;20505;-81
2022/06/01 08:44:43;;;;;;;32.60;29.80;;;14.90;99.90;;;;;;5100054;28;20887;-81
2022/06/01 08:47:17;;;;;;;31.33;28.57;;;14.90;99.90;;;;;;5101003;28;20468;-81
2022/06/01 08:49:46;;;;;;;31.60;28.87;;;14.90;99.90;;;;;;5103640;28;20439;-81
2022/06/01 08:52:15;;;;;;;32.83;30.03;;;14.90;99.90;;;;;;5100493;28;20464;-82
2022/06/01 08:54:44;;;;;;;32.40;29.43;;;15.00;99.90;;;;;;5102289;28;20476;-84
2022/06/01 08:57:15;;;;;;;33.47;30.47;;;15.10;99.90;;;;;;5101033;28;20448;-82
2022/06/01 08:59:50;;;;;;;30.50;27.80;;;15.10;99.90;;;;;;5100018;28;20483;-81
2022/06/01 09:02:34;;;;;;;30.80;28.10;;;15.20;99.90;;;;;;5103197;28;20420;-83
2022/06/01 09:05:08;;;;;;;29.23;26.73;;;15.30;99.90;;;;;;5102346;28;20541;-84
2022/06/01 09:07:43;;;;;;;30.23;27.63;;;15.30;99.90;;;;;;5100299;28;20427;-83
2022/06/01 09:10:44;;;;;;;30.63;27.93;;;15.40;99.90;;;;;;5101358;28;20446;-84
2022/06/01 09:13:19;;;;;;;30.87;28.37;;;15.50;99.90;;;;;;5105107;28;20503;-82
2022/06/01 09:15:52;;;;;;;28.27;25.97;;;15.60;99.90;;;;;;5106121;28;20449;-82
2022/06/01 09:18:24;;;;;;;31.07;28.37;;;15.70;99.90;;;;;;5102159;28;20444;-83
2022/06/01 09:23:41;;;;;;;30.10;27.43;;;15.70;99.90;;;;;;5100771;28;20468;-82
2022/06/01 09:26:22;;;;;;;31.20;28.50;;;15.80;99.90;;;;;;5100182;28;20444;-83
2022/06/01 09:28:55;;;;;;;30.10;27.50;;;15.90;99.90;;;;;;5097989;28;20509;-81
2022/06/01 09:31:30;;;;;;;28.00;25.50;;;16.00;99.90;;;;;;5098070;28;20904;-84
2022/06/01 09:34:20;;;;;;;25.60;23.50;;;16.20;99.90;;;;;;5099842;28;20450;-82
2022/06/01 09:37:04;;;;;;;25.07;22.80;;;16.40;99.90;;;;;;5100551;28;20494;-83
2022/06/01 09:39:35;;;;;;;26.60;24.30;;;16.60;99.90;;;;;;5101416;28;20463;-81
2022/06/01 09:42:16;;;;;;;23.33;21.40;;;16.80;99.90;;;;;;5098420;28;20856;-82
2022/06/01 09:44:48;;;;;;;25.60;23.50;;;16.80;99.90;;;;;;5098755;28;20477;-83
2022/06/01 09:47:31;;;;;;;24.87;22.57;;;16.90;99.90;;;;;;5104598;28;20416;-82
2022/06/01 09:50:01;;;;;;;24.47;22.07;;;16.90;99.90;;;;;;5104945;28;20402;-81
2022/06/01 09:52:33;;;;;;;23.23;21.33;;;16.90;99.90;;;;;;5105046;28;20387;-81
2022/06/01 09:55:17;;;;;;;24.43;22.30;;;16.90;99.90;;;;;;5101827;28;20453;-81
2022/06/01 09:57:56;;;;;;;24.70;22.60;;;16.90;99.90;;;;;;5103398;28;20505;-81
2022/06/01 10:06:12;;;;;;;20.70;18.80;;;16.80;99.90;;;;;;5105272;28;20896;-80
2022/06/01 10:08:43;;;;;;;19.73;17.83;;;16.80;99.90;;;;;;5109814;28;20473;-82
2022/06/01 10:11:28;;;;;;;20.37;18.57;;;16.70;99.90;;;;;;5109771;28;20444;-80
2022/06/01 10:14:05;;;;;;;20.90;19.13;;;16.60;99.90;;;;;;5105547;28;20541;-83
2022/06/01 10:16:41;;;;;;;19.23;17.53;;;16.50;99.90;;;;;;5104713;28;20420;-82
2022/06/01 10:19:13;;;;;;;16.10;14.80;;;16.30;99.90;;;;;;5104542;28;20451;-84
2022/06/01 10:21:50;;;;;;;15.70;14.30;;;16.10;99.90;;;;;;5101717;28;20511;-84
2022/06/01 10:24:24;;;;;;;15.30;13.90;;;16.00;99.90;;;;;;5099922;28;20501;-81
2022/06/01 10:26:58;;;;;;;15.90;14.50;;;15.80;99.90;;;;;;5099411;28;20399;-81
2022/06/01 10:29:32;;;;;;;15.13;13.83;;;15.70;99.90;;;;;;5099415;28;20414;-81
2022/06/01 10:32:07;;;;;;;15.97;14.57;;;15.60;99.90;;;;;;5099566;28;20415;-83
2022/06/01 10:34:41;;;;;;;15.00;13.60;;;15.50;99.90;;;;;;5101803;28;20472;-83
2022/06/01 10:37:18;;;;;;;11.93;10.93;;;15.40;99.90;;;;;;5101220;28;20441;-82
2022/06/01 10:39:50;;;;;;;11.00;10.00;;;15.40;99.90;;;;;;5101387;28;20451;-79
2022/06/01 10:43:16;;;;;;;17.67;16.00;;;15.30;99.90;;;;;;5102395;28;20526;-82
2022/06/01 10:45:15;;;;;;;14.20;13.00;;;15.30;99.90;;;;;;5097325;28;20837;-80
2022/06/01 10:47:56;;;;;;;13.33;12.13;;;15.20;99.90;;;;;;5099185;28;20474;-80
2022/06/01 10:50:31;;;;;;;14.43;13.23;;;15.20;99.90;;;;;;5099046;28;20506;-81
2022/06/01 10:53:06;;;;;;;16.43;14.93;;;15.20;99.90;;;;;;5118415;28;20421;-81
2022/06/01 10:55:42;;;;;;;18.07;16.50;;;15.20;99.90;;;;;;5115380;28;20460;-80
2022/06/01 10:58:22;;;;;;;14.60;13.33;;;15.30;99.90;;;;;;5114780;28;20395;-81
2022/06/01 11:00:59;;;;;;;16.10;14.80;;;15.40;99.90;;;;;;5109114;28;20402;-83
2022/06/01 11:03:50;;;;;;;19.03;17.33;;;15.60;99.90;;;;;;5105720;28;20487;-82
2022/06/01 11:06:37;;;;;;;19.50;17.93;;;15.80;99.90;;;;;;5105352;28;20452;-82
2022/06/01 11:09:18;;;;;;;21.13;19.43;;;15.90;99.90;;;;;;5105157;28;20446;-81
2022/06/01 11:11:50;;;;;;;19.20;17.60;;;16.10;99.90;;;;;;5103261;28;20475;-80
2022/06/01 11:14:40;;;;;;;20.40;18.70;;;16.10;99.90;;;;;;5103813;28;20518;-81
2022/06/01 11:17:18;;;;;;;22.07;20.23;;;16.10;99.90;;;;;;5105009;28;20444;-82
2022/06/01 11:20:14;;;;;;;28.63;25.70;;;16.00;99.90;;;;;;5100394;28;20441;-82
2022/06/01 11:23:09;;;;;;;19.03;17.33;;;16.00;99.90;;;;;;5101055;28;20432;-83
2022/06/01 11:25:47;;;;;;;19.13;17.43;;;15.90;99.90;;;;;;5099127;28;20468;-84
2022/06/01 11:28:35;;;;;;;17.73;16.13;;;15.90;99.90;;;;;;5098204;28;20842;-83
2022/06/01 11:31:15;;;;;;;17.60;16.10;;;15.90;99.90;;;;;;5098545;28;20419;-84
2022/06/01 11:33:51;;;;;;;17.77;16.27;;;15.80;99.90;;;;;;5097892;28;20438;-84
2022/06/01 11:36:31;;;;;;;15.87;14.57;;;15.80;99.90;;;;;;5100104;28;20415;-83
2022/06/01 11:39:12;;;;;;;15.63;14.33;;;15.80;99.90;;;;;;5099679;28;20395;-84
2022/06/01 11:41:52;;;;;;;13.67;12.37;;;15.80;99.90;;;;;;5099696;28;20442;-84
2022/06/01 11:44:26;;;;;;;14.77;13.40;;;16.00;99.90;;;;;;5102300;28;20525;-83
2022/06/01 11:47:00;;;;;;;15.37;13.97;;;16.20;99.90;;;;;;5100575;28;20411;-85
2022/06/01 11:49:38;;;;;;;16.20;14.80;;;16.40;99.90;;;;;;5100566;28;20461;-84
2022/06/01 11:52:33;;;;;;;16.80;15.33;;;16.40;99.90;;;;;;5101014;28;20440;-84
2022/06/01 11:55:22;;;;;;;15.97;14.47;;;16.50;99.90;;;;;;5088945;28;20447;-85
2022/06/01 11:57:54;;;;;;;16.50;15.10;;;16.60;99.90;;;;;;5103699;28;20478;-84
2022/06/01 12:00:44;;;;;;;14.10;12.90;;;16.70;99.90;;;;;;5104447;28;20436;-85
2022/06/01 12:03:39;;;;;;;11.47;10.47;;;16.80;99.90;;;;;;5105288;28;20434;-84
2022/06/01 12:06:12;;;;;;;11.60;10.60;;;16.70;99.90;;;;;;5105897;28;20473;-82
2022/06/01 12:08:50;;;;;;;12.40;11.20;;;16.70;99.90;;;;;;5102910;28;20455;-83
2022/06/01 12:11:42;;;;;;;11.13;10.13;;;16.70;99.90;;;;;;5102569;28;20777;-82
2022/06/01 12:14:37;;;;;;;10.87;9.83;;;16.70;99.90;;;;;;5102178;28;20496;-85
2022/06/01 12:17:32;;;;;;;10.73;9.17;;;16.70;99.90;;;;;;5090354;28;20957;-84
2022/06/01 12:20:48;;;;;;;9.67;8.27;;;16.70;99.90;;;;;;5105463;28;20425;-84
2022/06/01 12:30:19;;;;;;;8.83;8.00;;;16.70;99.90;;;;;;5103469;28;20794;-82
2022/06/01 12:33:15;;;;;;;9.13;8.33;;;16.80;99.90;;;;;;5102453;28;20904;-85
2022/06/01 12:35:50;;;;;;;7.40;6.70;;;16.90;99.90;;;;;;5056856;28;20475;-83
2022/06/01 12:38:24;;;;;;;7.83;7.03;;;16.90;99.90;;;;;;5103467;28;20431;-84
2022/06/01 12:41:13;;;;;;;7.40;6.63;;;17.00;99.90;;;;;;5105583;28;20419;-83
2022/06/01 12:43:52;;;;;;;7.60;6.80;;;17.00;99.90;;;;;;5103881;28;20981;-82
2022/06/01 12:46:26;;;;;;;7.40;6.70;;;17.00;99.90;;;;;;5102197;28;20406;-83
2022/06/01 12:49:29;;;;;;;6.70;5.90;;;17.00;99.90;;;;;;5104072;28;20430;-82
2022/06/01 12:52:03;;;;;;;8.20;6.53;;;17.00;99.90;;;;;;5104523;28;20452;-84
2022/06/01 12:54:34;;;;;;;8.20;6.90;;;16.90;99.90;;;;;;5102895;28;20986;-83
2022/06/01 12:57:04;;;;;;;7.40;6.70;;;17.00;99.90;;;;;;5104059;28;20451;-82
2022/06/01 12:59:35;;;;;;;7.70;6.90;;;16.90;99.80;;;;;;5104023;28;20422;-84
2022/06/01 13:02:08;;;;;;;8.70;7.90;;;16.90;99.90;;;;;;5104257;28;20443;-82
2022/06/01 13:04:37;;;;;;;8.70;7.90;;;16.90;99.90;;;;;;5103603;28;20475;-81
2022/06/01 13:07:08;;;;;;;9.60;8.70;;;16.90;99.90;;;;;;5102244;28;20514;-84
2022/06/01 13:09:37;;;;;;;9.40;8.50;;;16.90;99.90;;;;;;5104391;28;20423;-83
2022/06/01 13:12:08;;;;;;;8.70;7.90;;;16.90;99.90;;;;;;5102825;28;20444;-84
2022/06/01 13:14:37;;;;;;;6.90;6.03;;;16.90;99.80;;;;;;5102916;28;20447;-84
2022/06/01 13:17:13;;;;;;;6.77;5.63;;;16.90;99.70;;;;;;5104335;28;20479;-84
2022/06/01 13:19:41;;;;;;;6.10;5.40;;;16.90;99.50;;;;;;5105343;28;20424;-82
2022/06/01 13:22:17;;;;;;;7.10;6.03;;;16.90;99.60;;;;;;5113720;28;20427;-82
2022/06/01 13:24:50;;;;;;;6.70;6.00;;;17.00;99.70;;;;;;5117377;28;20430;-83
2022/06/01 13:27:24;;;;;;;7.30;6.53;;;17.10;99.60;;;;;;5116305;28;20475;-83
2022/06/01 13:29:59;;;;;;;6.90;6.20;;;17.10;99.50;;;;;;5116754;28;20419;-83
2022/06/01 13:32:31;;;;;;;7.83;6.40;;;17.20;99.60;;;;;;5117705;28;20432;-83
2022/06/01 13:35:04;;;;;;;8.57;7.70;;;17.30;99.80;;;;;;5118298;28;20498;-81
2022/06/01 13:37:44;;;;;;;8.40;7.60;;;17.40;99.80;;;;;;5117438;28;20440;-83